Time;durP1;ratioP1;P1;durP2;ratioP2;P2;SDS_P1;SDS_P2;PMS_P1;PMS_P2;Temp;Humidity;BMP_temperature;BMP_pressure;BME280_temperature;BME280_humidity;BME280_pressure;Samples;Min_cycle;Max_cycle;Signal;HPM_P1;HPM_P2
2022/12/09 00:00:50;;;;;;;24.30;14.53;;;;;;;;;;6328516;22;20413;-74
2022/12/09 00:03:43;;;;;;;27.13;16.77;;;;;;;;;;6330672;22;20416;-74
2022/12/09 00:06:36;;;;;;;25.33;15.07;;;;;;;;;;6328155;22;20971;-75
2022/12/09 00:09:29;;;;;;;27.47;15.40;;;;;;;;;;6327835;22;20514;-75
2022/12/09 00:12:21;;;;;;;25.27;14.77;;;;;;;;;;6327915;22;20415;-75
2022/12/09 00:15:10;;;;;;;24.67;14.70;;;;;;;;;;6337622;22;20432;-77
2022/12/09 00:18:01;;;;;;;26.87;15.60;;;;;;;;;;6331883;22;20412;-75
2022/12/09 00:20:54;;;;;;;23.10;14.10;;;;;;;;;;6331983;22;20909;-74
2022/12/09 00:23:54;;;;;;;22.60;14.10;;;;;;;;;;6330494;22;20485;-75
2022/12/09 00:26:45;;;;;;;22.60;14.17;;;;;;;;;;6331721;22;20436;-75
2022/12/09 00:29:34;;;;;;;22.13;13.70;;;;;;;;;;6340366;22;20426;-75
2022/12/09 00:32:26;;;;;;;19.73;11.87;;;;;;;;;;6327274;22;20495;-76
2022/12/09 00:35:14;;;;;;;23.93;13.27;;;;;;;;;;6327638;22;20447;-75
2022/12/09 00:38:12;;;;;;;20.37;13.23;;;;;;;;;;6327638;22;20459;-74
2022/12/09 00:41:04;;;;;;;20.60;12.30;;;;;;;;;;6347314;22;20415;-75
2022/12/09 00:44:00;;;;;;;23.10;12.80;;;;;;;;;;6346677;22;20408;-74
2022/12/09 00:46:48;;;;;;;23.30;14.10;;;;;;;;;;6345611;22;20510;-74
2022/12/09 00:49:42;;;;;;;27.13;13.33;;;;;;;;;;6341625;22;20463;-74
2022/12/09 00:52:31;;;;;;;19.57;12.90;;;;;;;;;;6340649;22;20422;-73
2022/12/09 00:55:21;;;;;;;19.27;12.33;;;;;;;;;;6340364;22;20415;-74
2022/12/09 00:58:14;;;;;;;27.30;13.80;;;;;;;;;;6344094;22;20454;-74
2022/12/09 01:01:03;;;;;;;21.60;13.93;;;;;;;;;;6343473;22;20409;-74
2022/12/09 01:03:55;;;;;;;22.07;13.47;;;;;;;;;;6345256;22;20406;-75
2022/12/09 01:06:47;;;;;;;20.13;12.67;;;;;;;;;;6340498;22;20491;-74
2022/12/09 01:09:40;;;;;;;20.33;12.90;;;;;;;;;;6341818;22;20408;-74
2022/12/09 01:12:30;;;;;;;20.83;13.33;;;;;;;;;;6343282;22;20420;-74
2022/12/09 01:15:23;;;;;;;17.80;12.40;;;;;;;;;;6339171;22;20409;-75
2022/12/09 01:18:17;;;;;;;24.73;14.20;;;;;;;;;;6342319;22;20435;-74
2022/12/09 01:21:07;;;;;;;22.43;13.83;;;;;;;;;;6342002;22;20425;-74
2022/12/09 01:23:57;;;;;;;22.23;13.30;;;;;;;;;;6343757;22;20424;-75
2022/12/09 01:26:47;;;;;;;21.00;13.53;;;;;;;;;;6358598;22;20443;-74
2022/12/09 01:29:40;;;;;;;23.50;14.17;;;;;;;;;;6358238;22;20396;-75
2022/12/09 01:32:29;;;;;;;24.37;15.23;;;;;;;;;;6343705;22;20484;-75
2022/12/09 01:35:18;;;;;;;21.87;14.07;;;;;;;;;;6347539;22;20411;-75
2022/12/09 01:38:09;;;;;;;23.10;15.60;;;;;;;;;;6356144;22;20474;-74
2022/12/09 01:41:00;;;;;;;23.80;15.50;;;;;;;;;;6356428;22;20396;-74
2022/12/09 01:44:03;;;;;;;24.97;16.13;;;;;;;;;;6353361;22;20416;-74
2022/12/09 01:46:58;;;;;;;23.80;15.17;;;;;;;;;;6344146;22;20445;-74
2022/12/09 01:49:48;;;;;;;24.40;14.77;;;;;;;;;;6347151;22;20405;-74
2022/12/09 01:52:37;;;;;;;22.93;15.73;;;;;;;;;;6348318;22;20420;-74
2022/12/09 01:55:30;;;;;;;26.60;16.93;;;;;;;;;;6345756;22;20773;-75
2022/12/09 01:58:23;;;;;;;21.23;14.80;;;;;;;;;;6345985;22;20428;-74
2022/12/09 02:01:12;;;;;;;25.47;15.50;;;;;;;;;;6339810;22;20418;-75
2022/12/09 02:04:02;;;;;;;24.93;15.83;;;;;;;;;;6344530;22;20425;-73
2022/12/09 02:07:02;;;;;;;27.50;16.80;;;;;;;;;;6342815;22;20428;-75
2022/12/09 02:09:52;;;;;;;27.20;16.07;;;;;;;;;;6354222;22;20727;-75
2022/12/09 02:12:45;;;;;;;24.87;17.20;;;;;;;;;;6343547;22;20416;-74
2022/12/09 02:15:39;;;;;;;27.47;16.80;;;;;;;;;;6345081;22;20408;-75
2022/12/09 02:18:44;;;;;;;30.10;17.53;;;;;;;;;;6343189;22;20431;-74
2022/12/09 02:21:39;;;;;;;27.40;17.73;;;;;;;;;;6345549;22;20415;-74
2022/12/09 02:24:34;;;;;;;24.10;14.97;;;;;;;;;;6346841;22;20454;-76
2022/12/09 02:27:31;;;;;;;29.17;17.50;;;;;;;;;;6347906;22;20831;-74
2022/12/09 02:30:20;;;;;;;28.53;17.43;;;;;;;;;;6345594;22;20418;-74
2022/12/09 02:33:21;;;;;;;27.70;16.43;;;;;;;;;;6338987;22;20439;-74
2022/12/09 02:36:16;;;;;;;28.10;17.60;;;;;;;;;;6341456;22;21148;-74
2022/12/09 02:39:09;;;;;;;28.87;17.33;;;;;;;;;;6352194;22;20446;-75
2022/12/09 02:42:04;;;;;;;28.57;16.80;;;;;;;;;;6340480;22;20512;-74
2022/12/09 02:44:55;;;;;;;27.27;16.67;;;;;;;;;;6345222;22;20419;-74
2022/12/09 02:47:49;;;;;;;28.33;16.50;;;;;;;;;;6343739;22;20439;-74
2022/12/09 02:50:47;;;;;;;27.10;15.70;;;;;;;;;;6343714;22;20757;-74
2022/12/09 02:53:41;;;;;;;28.80;16.47;;;;;;;;;;6340614;22;21365;-74
2022/12/09 02:56:30;;;;;;;29.23;16.93;;;;;;;;;;6347125;22;20742;-75
2022/12/09 02:59:22;;;;;;;28.57;16.13;;;;;;;;;;6343745;22;20441;-76
2022/12/09 03:02:16;;;;;;;23.37;15.10;;;;;;;;;;6345078;22;20408;-75
2022/12/09 03:05:13;;;;;;;24.13;15.90;;;;;;;;;;6346990;22;20411;-75
2022/12/09 03:08:07;;;;;;;25.60;15.67;;;;;;;;;;6345750;22;20446;-74
2022/12/09 03:11:00;;;;;;;22.73;14.13;;;;;;;;;;6345633;22;20407;-74
2022/12/09 03:13:55;;;;;;;25.77;15.50;;;;;;;;;;6345328;22;20430;-75
2022/12/09 03:16:47;;;;;;;23.00;15.80;;;;;;;;;;6345645;22;20408;-74
2022/12/09 03:19:45;;;;;;;24.13;15.43;;;;;;;;;;6347142;22;20527;-74
2022/12/09 03:22:36;;;;;;;25.10;17.40;;;;;;;;;;6347064;22;20411;-74
2022/12/09 03:25:29;;;;;;;29.07;16.90;;;;;;;;;;6345049;22;20415;-74
2022/12/09 03:28:24;;;;;;;32.03;17.40;;;;;;;;;;6348885;22;20440;-74
2022/12/09 03:31:19;;;;;;;25.60;17.00;;;;;;;;;;6346178;22;20449;-74
2022/12/09 03:34:12;;;;;;;24.17;15.93;;;;;;;;;;6349387;22;20441;-75
2022/12/09 03:37:02;;;;;;;28.23;16.37;;;;;;;;;;6344373;22;20430;-75
2022/12/09 03:40:01;;;;;;;27.40;16.20;;;;;;;;;;6341489;22;20826;-74
2022/12/09 03:42:51;;;;;;;29.07;16.93;;;;;;;;;;6347045;22;20439;-74
2022/12/09 03:45:44;;;;;;;24.60;16.43;;;;;;;;;;6348611;22;20442;-75
2022/12/09 03:48:39;;;;;;;25.30;16.30;;;;;;;;;;6348314;22;20432;-75
2022/12/09 03:51:31;;;;;;;25.90;16.00;;;;;;;;;;6348880;22;20408;-75
2022/12/09 03:54:24;;;;;;;23.83;15.30;;;;;;;;;;6357415;22;20479;-76
2022/12/09 03:57:14;;;;;;;26.33;15.87;;;;;;;;;;6349069;22;20424;-75
2022/12/09 04:00:07;;;;;;;26.20;16.67;;;;;;;;;;6344131;22;20408;-75
2022/12/09 04:02:58;;;;;;;25.33;15.80;;;;;;;;;;6355780;22;20404;-76
2022/12/09 04:05:47;;;;;;;23.63;16.00;;;;;;;;;;6350693;22;20414;-74
2022/12/09 04:08:36;;;;;;;24.47;15.83;;;;;;;;;;6346342;22;20466;-75
2022/12/09 04:11:28;;;;;;;26.73;16.73;;;;;;;;;;6345710;22;20405;-73
2022/12/09 04:14:18;;;;;;;24.20;15.27;;;;;;;;;;6348169;22;20407;-73
2022/12/09 04:17:11;;;;;;;22.90;14.50;;;;;;;;;;6343918;22;20456;-74
2022/12/09 04:20:04;;;;;;;24.70;15.33;;;;;;;;;;6344561;22;20416;-75
2022/12/09 04:22:56;;;;;;;20.67;14.10;;;;;;;;;;6348172;22;20403;-74
2022/12/09 04:25:45;;;;;;;25.57;15.70;;;;;;;;;;6347275;22;20485;-75
2022/12/09 04:28:38;;;;;;;25.60;15.93;;;;;;;;;;6345178;22;20443;-74
2022/12/09 04:31:30;;;;;;;25.50;16.20;;;;;;;;;;6342450;22;20404;-74
2022/12/09 04:34:21;;;;;;;21.90;15.03;;;;;;;;;;6342383;22;20408;-74
2022/12/09 04:37:14;;;;;;;29.47;18.10;;;;;;;;;;6341153;22;20447;-75
2022/12/09 04:40:06;;;;;;;28.37;17.07;;;;;;;;;;6341783;22;20402;-74
2022/12/09 04:43:11;;;;;;;25.37;16.00;;;;;;;;;;6343505;22;20454;-75
2022/12/09 04:46:02;;;;;;;27.47;15.23;;;;;;;;;;6351271;22;20414;-74
2022/12/09 04:48:53;;;;;;;26.87;15.60;;;;;;;;;;6343747;22;20443;-74
2022/12/09 04:51:47;;;;;;;19.17;13.13;;;;;;;;;;6342854;22;20408;-74
2022/12/09 04:54:40;;;;;;;25.00;15.80;;;;;;;;;;6346922;22;20478;-74
2022/12/09 04:57:29;;;;;;;25.00;15.50;;;;;;;;;;6340697;22;20420;-73
2022/12/09 05:00:19;;;;;;;23.00;15.30;;;;;;;;;;6343831;22;21148;-74
2022/12/09 05:03:09;;;;;;;23.30;16.17;;;;;;;;;;6345963;22;20438;-74
2022/12/09 05:06:00;;;;;;;26.97;15.87;;;;;;;;;;6344835;22;20419;-74
2022/12/09 05:08:51;;;;;;;22.53;15.00;;;;;;;;;;6346736;22;20475;-74
2022/12/09 05:11:42;;;;;;;25.17;15.97;;;;;;;;;;6344033;22;20442;-74
2022/12/09 05:14:31;;;;;;;28.23;16.50;;;;;;;;;;6346648;22;20415;-75
2022/12/09 05:17:19;;;;;;;21.13;14.20;;;;;;;;;;6346915;22;20836;-74
2022/12/09 05:20:09;;;;;;;21.87;15.63;;;;;;;;;;6355177;22;20408;-73
2022/12/09 05:23:02;;;;;;;26.30;15.80;;;;;;;;;;6344569;22;20407;-74
2022/12/09 05:25:57;;;;;;;24.73;15.20;;;;;;;;;;6346042;22;20482;-74
2022/12/09 05:28:47;;;;;;;22.87;15.03;;;;;;;;;;6345094;22;20442;-74
2022/12/09 05:31:37;;;;;;;24.80;15.23;;;;;;;;;;6344899;22;20403;-74
2022/12/09 05:34:26;;;;;;;20.80;14.50;;;;;;;;;;6349307;22;20496;-74
2022/12/09 05:37:16;;;;;;;23.30;14.73;;;;;;;;;;6347422;22;20510;-75
2022/12/09 05:40:05;;;;;;;22.90;14.87;;;;;;;;;;6345075;22;20406;-75
2022/12/09 05:42:57;;;;;;;23.67;15.43;;;;;;;;;;6338326;22;21267;-74
2022/12/09 05:45:49;;;;;;;22.20;16.23;;;;;;;;;;6342477;22;20432;-74
2022/12/09 05:48:37;;;;;;;21.30;16.17;;;;;;;;;;6353601;22;20440;-73
2022/12/09 05:51:27;;;;;;;24.97;15.40;;;;;;;;;;6342825;22;20507;-74
2022/12/09 05:54:17;;;;;;;20.73;14.80;;;;;;;;;;6340766;22;20469;-74
2022/12/09 05:57:06;;;;;;;28.30;17.63;;;;;;;;;;6353714;22;20455;-75
2022/12/09 05:59:55;;;;;;;27.27;17.70;;;;;;;;;;6343063;22;20412;-74
2022/12/09 06:02:45;;;;;;;27.67;17.10;;;;;;;;;;6340197;22;20412;-74
2022/12/09 06:05:39;;;;;;;27.00;17.33;;;;;;;;;;6348922;22;20497;-73
2022/12/09 06:08:32;;;;;;;26.40;17.37;;;;;;;;;;6345844;22;20443;-75
2022/12/09 06:11:23;;;;;;;28.00;17.87;;;;;;;;;;6346152;22;20484;-74
2022/12/09 06:14:14;;;;;;;28.20;18.23;;;;;;;;;;6334998;22;20419;-73
2022/12/09 06:17:07;;;;;;;23.80;16.37;;;;;;;;;;6353829;22;20428;-74
2022/12/09 06:20:04;;;;;;;28.77;17.60;;;;;;;;;;6346696;22;20415;-74
2022/12/09 06:22:54;;;;;;;24.37;16.20;;;;;;;;;;6355866;22;20430;-75
2022/12/09 06:25:44;;;;;;;25.03;16.87;;;;;;;;;;6345834;22;20418;-74
2022/12/09 06:28:33;;;;;;;22.97;14.67;;;;;;;;;;6345281;22;20435;-75
2022/12/09 06:31:25;;;;;;;25.37;16.90;;;;;;;;;;6351460;22;20415;-73
2022/12/09 06:34:16;;;;;;;29.63;17.13;;;;;;;;;;6340543;22;20489;-74
2022/12/09 06:37:07;;;;;;;22.83;15.10;;;;;;;;;;6339609;22;20784;-74
2022/12/09 06:39:58;;;;;;;27.80;17.20;;;;;;;;;;6335492;22;20479;-75
2022/12/09 06:42:52;;;;;;;21.60;14.23;;;;;;;;;;6325938;22;20474;-75
2022/12/09 06:45:41;;;;;;;24.10;15.93;;;;;;;;;;6339591;22;20415;-74
2022/12/09 06:48:30;;;;;;;24.10;16.40;;;;;;;;;;6325736;22;20424;-75
2022/12/09 06:51:22;;;;;;;22.83;16.20;;;;;;;;;;6297123;22;20413;-74
2022/12/09 06:54:14;;;;;;;24.53;15.77;;;;;;;;;;6309352;22;20409;-74
2022/12/09 06:57:05;;;;;;;23.17;15.37;;;;;;;;;;6308480;22;20418;-73
2022/12/09 06:59:54;;;;;;;26.33;16.37;;;;;;;;;;6305914;22;20928;-75
2022/12/09 07:02:48;;;;;;;23.57;15.53;;;;;;;;;;6294820;22;20405;-74
2022/12/09 07:05:41;;;;;;;21.40;14.77;;;;;;;;;;6295291;22;20416;-75
2022/12/09 07:08:32;;;;;;;23.30;15.83;;;;;;;;;;6300616;22;20461;-74
2022/12/09 07:11:24;;;;;;;23.20;14.87;;;;;;;;;;6301992;22;20472;-74
2022/12/09 07:14:24;;;;;;;22.93;16.30;;;;;;;;;;6296492;22;20409;-75
2022/12/09 07:17:15;;;;;;;24.57;14.93;;;;;;;;;;6306052;22;21123;-73
2022/12/09 07:20:05;;;;;;;22.00;14.83;;;;;;;;;;6305666;22;20428;-75
2022/12/09 07:23:01;;;;;;;20.50;13.70;;;;;;;;;;6296708;22;20432;-75
2022/12/09 07:25:56;;;;;;;22.40;15.03;;;;;;;;;;6306537;22;20417;-74
2022/12/09 07:28:48;;;;;;;19.97;14.33;;;;;;;;;;6294422;22;20438;-74
2022/12/09 07:31:39;;;;;;;21.97;14.63;;;;;;;;;;6304224;22;20409;-75
2022/12/09 07:34:29;;;;;;;24.50;16.20;;;;;;;;;;6294485;22;21104;-75
2022/12/09 07:37:19;;;;;;;19.53;14.07;;;;;;;;;;6309480;22;20410;-75
2022/12/09 07:40:08;;;;;;;20.97;14.23;;;;;;;;;;6307757;22;20617;-74
2022/12/09 07:42:58;;;;;;;20.70;14.83;;;;;;;;;;6297579;22;20490;-75
2022/12/09 07:45:50;;;;;;;22.67;14.93;;;;;;;;;;6301949;22;20772;-75
2022/12/09 07:48:41;;;;;;;21.30;15.07;;;;;;;;;;6311150;22;20415;-75
2022/12/09 07:51:31;;;;;;;21.17;14.63;;;;;;;;;;6300226;22;20462;-74
2022/12/09 07:54:21;;;;;;;25.77;14.30;;;;;;;;;;6301422;22;20763;-75
2022/12/09 07:57:10;;;;;;;20.57;14.00;;;;;;;;;;6302524;22;20409;-75
2022/12/09 07:59:59;;;;;;;20.03;13.73;;;;;;;;;;6303043;22;20440;-74
2022/12/09 08:02:49;;;;;;;22.87;14.40;;;;;;;;;;6303436;22;20412;-73
2022/12/09 08:05:38;;;;;;;21.27;14.03;;;;;;;;;;6296118;22;20421;-75
2022/12/09 08:08:27;;;;;;;20.10;14.70;;;;;;;;;;6301542;22;20428;-76
2022/12/09 08:11:17;;;;;;;17.80;12.57;;;;;;;;;;6294913;22;20807;-75
2022/12/09 08:14:08;;;;;;;20.57;14.20;;;;;;;;;;6303162;22;20401;-74
2022/12/09 08:17:00;;;;;;;24.33;15.70;;;;;;;;;;6294608;22;20413;-74
2022/12/09 08:19:50;;;;;;;28.00;17.80;;;;;;;;;;6289806;22;20429;-73
2022/12/09 08:22:39;;;;;;;24.37;17.40;;;;;;;;;;6296989;22;20585;-74
2022/12/09 08:25:28;;;;;;;28.10;17.50;;;;;;;;;;6300761;22;20415;-75
2022/12/09 08:28:17;;;;;;;29.13;17.43;;;;;;;;;;6301467;22;20416;-74
2022/12/09 08:31:07;;;;;;;26.10;17.87;;;;;;;;;;6302557;22;20498;-74
2022/12/09 08:33:57;;;;;;;25.17;16.50;;;;;;;;;;6310907;22;20412;-74
2022/12/09 08:36:49;;;;;;;25.93;18.10;;;;;;;;;;6300249;22;20496;-75
2022/12/09 08:39:39;;;;;;;29.43;16.80;;;;;;;;;;6299807;22;21284;-73
2022/12/09 08:42:32;;;;;;;28.20;17.10;;;;;;;;;;6299853;22;20413;-73
2022/12/09 08:45:21;;;;;;;31.27;19.67;;;;;;;;;;6300536;22;20412;-73
2022/12/09 08:48:09;;;;;;;30.03;18.40;;;;;;;;;;6300124;22;20417;-75
2022/12/09 08:50:58;;;;;;;26.20;17.53;;;;;;;;;;6296713;22;20456;-75
2022/12/09 08:53:49;;;;;;;32.40;19.67;;;;;;;;;;6291377;22;20530;-74
2022/12/09 08:56:38;;;;;;;29.23;18.07;;;;;;;;;;6298305;22;20894;-75
2022/12/09 08:59:26;;;;;;;27.40;18.00;;;;;;;;;;6297782;22;20429;-73
2022/12/09 09:02:15;;;;;;;27.87;17.73;;;;;;;;;;6293474;22;20435;-74
2022/12/09 09:05:05;;;;;;;25.93;16.43;;;;;;;;;;6298204;22;20407;-73
2022/12/09 09:07:54;;;;;;;25.73;17.53;;;;;;;;;;6308086;22;20413;-74
2022/12/09 09:10:44;;;;;;;24.77;17.20;;;;;;;;;;6309376;22;20444;-73
2022/12/09 09:13:33;;;;;;;24.20;16.70;;;;;;;;;;6311752;22;20914;-75
2022/12/09 09:16:23;;;;;;;27.23;17.40;;;;;;;;;;6299009;22;20500;-73
2022/12/09 09:19:14;;;;;;;22.33;15.80;;;;;;;;;;6300208;22;20432;-73
2022/12/09 09:22:04;;;;;;;19.77;14.00;;;;;;;;;;6299625;22;20916;-74
2022/12/09 09:25:04;;;;;;;25.67;16.70;;;;;;;;;;6287901;22;20435;-73
2022/12/09 09:27:56;;;;;;;25.30;16.60;;;;;;;;;;6297668;22;20554;-73
2022/12/09 09:30:49;;;;;;;24.17;16.33;;;;;;;;;;6298416;22;20445;-75
2022/12/09 09:33:38;;;;;;;23.27;16.33;;;;;;;;;;6289443;22;20860;-74
2022/12/09 09:36:27;;;;;;;23.97;16.30;;;;;;;;;;6297296;22;20409;-76
2022/12/09 09:39:16;;;;;;;24.67;16.43;;;;;;;;;;6310601;22;20934;-74
2022/12/09 09:42:06;;;;;;;26.60;16.20;;;;;;;;;;6264471;22;20450;-73
2022/12/09 09:44:58;;;;;;;25.50;15.47;;;;;;;;;;6270183;22;20414;-74
2022/12/09 09:47:48;;;;;;;23.70;14.70;;;;;;;;;;6273456;22;20410;-74
2022/12/09 09:50:42;;;;;;;25.20;15.77;;;;;;;;;;6277560;22;20586;-75
2022/12/09 09:53:33;;;;;;;23.23;15.60;;;;;;;;;;6260388;22;20417;-74
2022/12/09 09:56:26;;;;;;;22.43;14.47;;;;;;;;;;6272183;22;20414;-73
2022/12/09 09:59:19;;;;;;;21.57;14.23;;;;;;;;;;6268217;22;20432;-73
2022/12/09 10:02:16;;;;;;;21.30;14.40;;;;;;;;;;6275443;22;20441;-73
2022/12/09 10:05:13;;;;;;;20.33;14.27;;;;;;;;;;6257786;22;20428;-73
2022/12/09 10:08:18;;;;;;;21.47;14.80;;;;;;;;;;6267876;22;21209;-75
2022/12/09 10:11:11;;;;;;;22.60;15.30;;;;;;;;;;6277223;22;20441;-74
2022/12/09 10:14:06;;;;;;;20.77;14.80;;;;;;;;;;6256452;22;20629;-74
2022/12/09 10:16:59;;;;;;;22.77;15.73;;;;;;;;;;6262513;22;21197;-73
2022/12/09 10:19:52;;;;;;;22.80;14.30;;;;;;;;;;6253035;22;21392;-73
2022/12/09 10:22:42;;;;;;;20.80;14.90;;;;;;;;;;6271617;22;20550;-74
2022/12/09 10:25:33;;;;;;;21.60;14.33;;;;;;;;;;6261749;22;20413;-73
2022/12/09 10:28:23;;;;;;;20.83;14.70;;;;;;;;;;6259054;22;20841;-73
2022/12/09 10:31:13;;;;;;;20.53;13.67;;;;;;;;;;6262617;22;20441;-74
2022/12/09 10:34:01;;;;;;;21.10;15.00;;;;;;;;;;6264009;22;20508;-73
2022/12/09 10:36:52;;;;;;;20.87;14.37;;;;;;;;;;6273027;22;20557;-73
2022/12/09 10:39:41;;;;;;;20.43;14.23;;;;;;;;;;6267091;22;20443;-75
2022/12/09 10:45:47;;;;;;;19.37;13.50;;;;;;;;;;6298135;22;20409;-75
2022/12/09 10:49:00;;;;;;;18.57;12.40;;;;;;;;;;6289497;22;20422;-75
2022/12/09 10:51:50;;;;;;;16.50;12.07;;;;;;;;;;6290450;22;20440;-75
2022/12/09 10:54:43;;;;;;;19.60;12.37;;;;;;;;;;6299538;22;20425;-75
2022/12/09 10:57:32;;;;;;;18.83;13.20;;;;;;;;;;6292607;22;20416;-75
2022/12/09 11:00:22;;;;;;;17.77;12.50;;;;;;;;;;6286346;22;20452;-74
2022/12/09 11:03:27;;;;;;;16.70;12.00;;;;;;;;;;6289959;22;20416;-75
2022/12/09 11:06:21;;;;;;;18.13;12.20;;;;;;;;;;6295007;22;20786;-74
2022/12/09 11:09:19;;;;;;;19.60;13.77;;;;;;;;;;6282902;22;20588;-74
2022/12/09 11:12:17;;;;;;;18.93;12.10;;;;;;;;;;6285503;22;20615;-75
2022/12/09 11:15:07;;;;;;;16.50;11.60;;;;;;;;;;6286122;22;20423;-75
2022/12/09 11:17:58;;;;;;;15.83;12.50;;;;;;;;;;6283821;22;20414;-73
2022/12/09 11:20:55;;;;;;;17.00;12.07;;;;;;;;;;6304008;22;20570;-75
2022/12/09 11:23:52;;;;;;;18.03;11.87;;;;;;;;;;6287587;22;20412;-74
2022/12/09 11:26:51;;;;;;;16.10;10.70;;;;;;;;;;6285878;22;20432;-73
2022/12/09 11:29:43;;;;;;;16.03;11.90;;;;;;;;;;6289643;22;20430;-73
2022/12/09 11:32:32;;;;;;;14.63;10.50;;;;;;;;;;6300088;22;20442;-74
2022/12/09 11:35:24;;;;;;;14.13;11.00;;;;;;;;;;6289091;22;20924;-73
2022/12/09 11:38:19;;;;;;;15.27;10.50;;;;;;;;;;6287876;22;20420;-74
2022/12/09 11:42:12;;;;;;;14.83;10.27;;;;;;;;;;6292478;22;20929;-74
2022/12/09 11:44:26;;;;;;;18.37;10.37;;;;;;;;;;6295757;22;21094;-73
2022/12/09 11:47:22;;;;;;;15.17;10.53;;;;;;;;;;6286989;22;20411;-73
2022/12/09 11:50:16;;;;;;;14.90;10.83;;;;;;;;;;6298269;22;20440;-75
2022/12/09 11:53:16;;;;;;;13.80;10.50;;;;;;;;;;6281664;22;20408;-73
2022/12/09 11:56:07;;;;;;;13.30;10.87;;;;;;;;;;6289100;22;20758;-73
2022/12/09 11:58:58;;;;;;;14.73;11.43;;;;;;;;;;6294622;22;20409;-75
2022/12/09 12:01:49;;;;;;;13.83;11.00;;;;;;;;;;6300111;22;20410;-75
2022/12/09 12:04:42;;;;;;;13.70;10.37;;;;;;;;;;6292632;22;20418;-75
2022/12/09 12:07:35;;;;;;;13.93;10.50;;;;;;;;;;6284803;22;20425;-75
2022/12/09 12:10:25;;;;;;;16.50;10.97;;;;;;;;;;6282755;22;20434;-76
2022/12/09 12:13:19;;;;;;;14.30;11.10;;;;;;;;;;6283987;22;20416;-75
2022/12/09 12:16:11;;;;;;;14.70;11.30;;;;;;;;;;6287747;22;20416;-74
2022/12/09 12:19:03;;;;;;;13.50;10.03;;;;;;;;;;6301319;22;20409;-75
2022/12/09 12:22:04;;;;;;;18.37;12.13;;;;;;;;;;6289426;22;21189;-75
2022/12/09 12:25:02;;;;;;;16.17;11.80;;;;;;;;;;6273200;22;20412;-77
2022/12/09 12:27:57;;;;;;;15.83;11.13;;;;;;;;;;6287639;22;20425;-77
2022/12/09 12:30:50;;;;;;;14.60;11.90;;;;;;;;;;6283645;22;20435;-77
2022/12/09 12:33:47;;;;;;;15.70;11.33;;;;;;;;;;6288809;22;20766;-77
2022/12/09 12:37:01;;;;;;;15.67;11.70;;;;;;;;;;6288794;22;20505;-75
2022/12/09 12:39:56;;;;;;;15.13;11.50;;;;;;;;;;6284820;22;20449;-77
2022/12/09 12:49:11;;;;;;;14.67;11.70;;;;;;;;;;6329754;22;20801;-75
2022/12/09 12:52:03;;;;;;;19.13;12.37;;;;;;;;;;6340456;22;20845;-74
2022/12/09 12:54:58;;;;;;;16.87;11.87;;;;;;;;;;6327034;22;20404;-73
2022/12/09 12:57:50;;;;;;;15.77;11.83;;;;;;;;;;6338384;22;21096;-72
2022/12/09 13:00:43;;;;;;;16.63;12.37;;;;;;;;;;6341433;22;20409;-73
2022/12/09 13:03:37;;;;;;;16.00;12.07;;;;;;;;;;6330946;22;20888;-73
2022/12/09 13:06:30;;;;;;;15.70;11.80;;;;;;;;;;6340977;22;20412;-72
2022/12/09 13:09:21;;;;;;;18.23;12.10;;;;;;;;;;6327274;22;21272;-72
2022/12/09 13:12:14;;;;;;;14.30;11.37;;;;;;;;;;6330619;22;20441;-72
2022/12/09 13:15:03;;;;;;;18.57;13.03;;;;;;;;;;6338238;22;20868;-73
2022/12/09 13:17:52;;;;;;;18.10;12.73;;;;;;;;;;6344184;22;20431;-74
2022/12/09 13:20:44;;;;;;;15.07;12.43;;;;;;;;;;6326857;22;20400;-76
2022/12/09 13:23:40;;;;;;;15.63;11.70;;;;;;;;;;6336857;22;20495;-73
2022/12/09 13:26:37;;;;;;;15.70;12.47;;;;;;;;;;6342843;22;20768;-72
2022/12/09 13:29:33;;;;;;;14.83;11.80;;;;;;;;;;6341981;22;20410;-73
2022/12/09 13:32:28;;;;;;;16.03;11.10;;;;;;;;;;6338403;22;20813;-75
2022/12/09 13:35:20;;;;;;;15.23;11.77;;;;;;;;;;6335799;22;20408;-74
2022/12/09 13:38:24;;;;;;;18.23;12.50;;;;;;;;;;6342190;22;20447;-74
2022/12/09 13:42:51;;;;;;;17.50;12.13;;;;;;;;;;6328552;22;21054;-72
2022/12/09 13:44:46;;;;;;;17.67;12.60;;;;;;;;;;6329254;22;20421;-72
2022/12/09 13:47:35;;;;;;;18.00;12.50;;;;;;;;;;6332257;22;20456;-73
2022/12/09 13:50:25;;;;;;;16.53;12.77;;;;;;;;;;6334454;22;20416;-74
2022/12/09 13:53:24;;;;;;;15.00;11.90;;;;;;;;;;6331998;22;20438;-75
2022/12/09 13:56:20;;;;;;;16.20;12.07;;;;;;;;;;6335922;22;20443;-72
2022/12/09 13:59:18;;;;;;;15.50;11.50;;;;;;;;;;6333009;22;20443;-72
2022/12/09 14:02:27;;;;;;;16.93;12.27;;;;;;;;;;6331324;22;20404;-71
2022/12/09 14:05:21;;;;;;;16.40;11.83;;;;;;;;;;6305478;22;20412;-76
2022/12/09 14:08:17;;;;;;;20.17;13.43;;;;;;;;;;6308544;22;20461;-74
2022/12/09 14:11:21;;;;;;;17.27;12.30;;;;;;;;;;6310861;22;20405;-73
2022/12/09 14:14:28;;;;;;;16.00;12.23;;;;;;;;;;6307248;22;20405;-73
2022/12/09 14:17:34;;;;;;;15.90;11.60;;;;;;;;;;6311943;22;20408;-76
2022/12/09 14:20:26;;;;;;;17.20;12.27;;;;;;;;;;6310311;22;20417;-76
2022/12/09 14:23:17;;;;;;;16.73;11.70;;;;;;;;;;6310982;22;20408;-75
2022/12/09 14:26:05;;;;;;;18.30;12.60;;;;;;;;;;6317113;22;20409;-72
2022/12/09 14:28:55;;;;;;;18.57;12.23;;;;;;;;;;6306908;22;20438;-75
2022/12/09 14:31:46;;;;;;;16.33;11.73;;;;;;;;;;6320604;22;20400;-74
2022/12/09 14:34:36;;;;;;;17.40;11.70;;;;;;;;;;6308421;22;20416;-75
2022/12/09 14:37:46;;;;;;;18.60;12.83;;;;;;;;;;6311849;22;20425;-73
2022/12/09 14:40:59;;;;;;;16.10;12.50;;;;;;;;;;6303250;22;20492;-75
2022/12/09 14:43:54;;;;;;;17.50;12.13;;;;;;;;;;6304793;22;20439;-72
2022/12/09 14:46:43;;;;;;;15.57;11.87;;;;;;;;;;6302375;22;20409;-73
2022/12/09 14:49:33;;;;;;;18.27;11.90;;;;;;;;;;6301392;22;20490;-72
2022/12/09 14:52:34;;;;;;;18.17;11.73;;;;;;;;;;6299611;22;20449;-72
2022/12/09 14:55:24;;;;;;;18.73;11.77;;;;;;;;;;6296982;22;20412;-73
2022/12/09 14:58:18;;;;;;;17.23;12.40;;;;;;;;;;6301476;22;20434;-75
2022/12/09 15:01:06;;;;;;;16.83;12.73;;;;;;;;;;6302514;22;20416;-75
2022/12/09 15:03:56;;;;;;;17.77;12.57;;;;;;;;;;6300850;22;20446;-72
2022/12/09 15:06:45;;;;;;;18.00;13.53;;;;;;;;;;6306149;22;20423;-73
2022/12/09 15:09:34;;;;;;;16.73;12.90;;;;;;;;;;6305246;22;20906;-72
2022/12/09 15:12:24;;;;;;;16.13;11.97;;;;;;;;;;6297423;22;20895;-73
2022/12/09 15:15:16;;;;;;;18.80;13.37;;;;;;;;;;6304124;22;20406;-75
2022/12/09 15:18:06;;;;;;;20.43;13.43;;;;;;;;;;6299412;22;20429;-73
2022/12/09 15:20:57;;;;;;;18.40;13.33;;;;;;;;;;6312886;22;20417;-72
2022/12/09 15:23:45;;;;;;;17.50;13.30;;;;;;;;;;6306403;22;20412;-72
2022/12/09 15:26:34;;;;;;;17.97;12.67;;;;;;;;;;6297093;22;20416;-76
2022/12/09 15:29:23;;;;;;;16.53;11.67;;;;;;;;;;6302567;22;21297;-72
2022/12/09 15:32:20;;;;;;;15.27;11.93;;;;;;;;;;6301839;22;20413;-73
2022/12/09 15:35:18;;;;;;;17.47;11.70;;;;;;;;;;6301051;22;20409;-73
2022/12/09 15:38:09;;;;;;;16.73;11.47;;;;;;;;;;6301078;22;20457;-73
2022/12/09 15:44:07;;;;;;;15.83;11.07;;;;;;;;;;6300288;22;20420;-75
2022/12/09 15:46:56;;;;;;;17.63;11.73;;;;;;;;;;6298707;22;20416;-74
2022/12/09 15:49:50;;;;;;;16.50;11.17;;;;;;;;;;6303156;22;20418;-72
2022/12/09 15:52:41;;;;;;;15.93;11.50;;;;;;;;;;6300529;22;20478;-73
2022/12/09 15:55:31;;;;;;;18.17;12.70;;;;;;;;;;6303540;22;20512;-72
2022/12/09 15:58:22;;;;;;;19.40;11.20;;;;;;;;;;6302619;22;20436;-72
2022/12/09 16:01:11;;;;;;;17.80;12.87;;;;;;;;;;6297841;22;20419;-72
2022/12/09 16:04:01;;;;;;;20.63;13.00;;;;;;;;;;6309624;22;20405;-73
2022/12/09 16:06:51;;;;;;;18.77;12.63;;;;;;;;;;6301121;22;20432;-73
2022/12/09 16:09:39;;;;;;;17.77;12.90;;;;;;;;;;6306544;22;20413;-73
2022/12/09 16:12:31;;;;;;;25.53;13.90;;;;;;;;;;6303983;22;20416;-73
2022/12/09 16:15:39;;;;;;;17.70;12.97;;;;;;;;;;6312100;22;20417;-73
2022/12/09 16:18:30;;;;;;;18.60;13.60;;;;;;;;;;6300764;22;20943;-73
2022/12/09 16:21:21;;;;;;;19.93;13.40;;;;;;;;;;6300827;22;20483;-73
2022/12/09 16:24:12;;;;;;;17.07;12.60;;;;;;;;;;6308949;22;20412;-72
2022/12/09 16:27:04;;;;;;;19.60;13.57;;;;;;;;;;6300456;22;20413;-75
2022/12/09 16:29:55;;;;;;;18.57;12.83;;;;;;;;;;6306650;22;20413;-74
2022/12/09 16:32:45;;;;;;;18.70;12.97;;;;;;;;;;6302446;22;20413;-74
2022/12/09 16:35:35;;;;;;;21.27;13.83;;;;;;;;;;6304213;22;20437;-74
2022/12/09 16:38:24;;;;;;;18.30;13.40;;;;;;;;;;6300713;22;20429;-74
2022/12/09 16:41:14;;;;;;;18.27;13.10;;;;;;;;;;6307130;22;20443;-75
2022/12/09 16:44:02;;;;;;;20.53;13.47;;;;;;;;;;6303625;22;20416;-72
2022/12/09 16:47:02;;;;;;;19.50;14.60;;;;;;;;;;6302136;22;20439;-76
2022/12/09 16:49:51;;;;;;;20.23;13.57;;;;;;;;;;6315990;22;20404;-74
2022/12/09 16:52:40;;;;;;;18.97;13.30;;;;;;;;;;6317207;22;20442;-73
2022/12/09 16:55:29;;;;;;;23.10;15.20;;;;;;;;;;6308064;22;20642;-74